createdAt,value
2017-09-09T00:00:11.814Z,4.90
2017-09-09T00:02:40.513Z,4.40
2017-09-09T00:05:08.903Z,5.10
2017-09-09T00:07:37.295Z,5.47
2017-09-09T00:10:05.604Z,4.90
2017-09-09T00:12:35.537Z,4.30
2017-09-09T00:15:03.887Z,4.80
2017-09-09T00:17:32.269Z,4.70
2017-09-09T00:20:00.565Z,4.40
2017-09-09T00:22:28.857Z,4.67
2017-09-09T00:24:57.165Z,4.50
2017-09-09T00:27:25.461Z,4.63
2017-09-09T00:29:53.793Z,5.10
2017-09-09T00:32:22.090Z,4.17
2017-09-09T00:34:50.410Z,4.43
2017-09-09T00:37:18.736Z,4.67
2017-09-09T00:39:47.081Z,4.80
2017-09-09T00:42:16.205Z,4.00
2017-09-09T00:44:44.527Z,4.30
2017-09-09T00:47:12.877Z,4.90
2017-09-09T00:49:41.226Z,4.17
2017-09-09T00:52:10.353Z,5.63
2017-09-09T00:54:38.662Z,4.83
2017-09-09T00:57:06.978Z,5.50
2017-09-09T00:59:36.034Z,4.10
2017-09-09T01:02:04.373Z,4.73
2017-09-09T01:04:32.685Z,4.23
2017-09-09T01:07:01.804Z,5.00
2017-09-09T01:09:30.114Z,4.53
2017-09-09T01:11:58.416Z,4.30
2017-09-09T01:14:26.762Z,4.27
2017-09-09T01:16:55.130Z,4.23
2017-09-09T01:19:23.531Z,4.63
2017-09-09T01:21:51.859Z,4.50
2017-09-09T01:24:20.195Z,4.80
2017-09-09T01:26:48.693Z,4.70
2017-09-09T01:29:17.024Z,5.00
2017-09-09T01:31:46.110Z,4.87
2017-09-09T01:34:15.194Z,4.70
2017-09-09T01:36:43.513Z,4.63
2017-09-09T01:39:11.813Z,4.40
2017-09-09T01:41:40.126Z,4.20
2017-09-09T01:44:08.422Z,4.30
2017-09-09T01:46:37.553Z,4.80
2017-09-09T01:49:05.861Z,4.83
2017-09-09T01:51:34.169Z,6.00
2017-09-09T01:54:03.246Z,5.07
2017-09-09T01:56:31.589Z,5.00
2017-09-09T01:58:59.903Z,4.97
2017-09-09T02:01:28.218Z,5.00
2017-09-09T02:03:56.518Z,4.87
2017-09-09T02:06:24.812Z,4.80
2017-09-09T02:08:53.111Z,5.10
2017-09-09T02:11:21.405Z,4.83
2017-09-09T02:13:50.484Z,4.70
2017-09-09T02:16:18.799Z,4.90
2017-09-09T02:18:47.132Z,4.33
2017-09-09T02:21:15.430Z,3.90
2017-09-09T02:23:43.756Z,4.30
2017-09-09T02:26:12.062Z,4.40
2017-09-09T02:28:40.357Z,4.70
2017-09-09T02:31:08.659Z,5.20
2017-09-09T02:33:36.955Z,5.60
2017-09-09T02:36:05.324Z,5.30
2017-09-09T02:38:34.383Z,5.60
2017-09-09T02:41:03.491Z,5.40
2017-09-09T02:43:32.578Z,4.80
2017-09-09T02:46:01.671Z,4.67
2017-09-09T02:48:30.773Z,4.60
2017-09-09T02:50:59.862Z,4.93
2017-09-09T02:53:28.936Z,5.50
2017-09-09T02:55:57.231Z,6.07
2017-09-09T02:58:25.546Z,5.43
2017-09-09T03:00:53.849Z,5.57
2017-09-09T03:03:22.213Z,5.47
2017-09-09T03:05:50.521Z,5.90
2017-09-09T03:08:18.862Z,5.80
2017-09-09T03:10:47.174Z,5.53
2017-09-09T03:13:15.501Z,5.57
2017-09-09T03:15:43.806Z,5.50
2017-09-09T03:18:12.109Z,4.90
2017-09-09T03:20:40.401Z,4.53
2017-09-09T03:23:08.712Z,5.00
2017-09-09T03:25:37.037Z,5.43
2017-09-09T03:28:05.350Z,5.67
2017-09-09T03:30:33.690Z,5.67
2017-09-09T03:33:02.030Z,5.70
2017-09-09T03:35:30.362Z,5.53
2017-09-09T03:37:58.658Z,4.77
2017-09-09T03:40:27.734Z,5.07
2017-09-09T03:42:56.055Z,6.43
2017-09-09T03:45:24.367Z,5.60
2017-09-09T03:47:52.686Z,6.30
2017-09-09T03:50:21.847Z,4.80
2017-09-09T03:52:50.171Z,6.00
2017-09-09T03:55:18.491Z,4.20
2017-09-09T03:57:46.802Z,5.23
2017-09-09T04:00:15.879Z,4.17
2017-09-09T04:02:44.212Z,5.17
2017-09-09T04:05:12.524Z,4.30
2017-09-09T04:07:40.854Z,4.27
2017-09-09T04:10:09.175Z,4.83
2017-09-09T04:12:37.487Z,4.93
2017-09-09T04:15:06.564Z,4.53
2017-09-09T04:17:34.866Z,4.07
2017-09-09T04:20:03.949Z,4.93
2017-09-09T04:22:32.262Z,4.63
2017-09-09T04:25:00.573Z,4.43
2017-09-09T04:27:28.883Z,4.53
2017-09-09T04:29:57.193Z,4.60
2017-09-09T04:32:25.507Z,4.20
2017-09-09T04:34:53.865Z,5.10
2017-09-09T04:37:22.177Z,4.10
2017-09-09T04:39:50.484Z,4.07
2017-09-09T04:42:19.569Z,4.47
2017-09-09T04:44:48.647Z,5.30
2017-09-09T04:47:16.967Z,4.90
2017-09-09T04:49:45.280Z,3.60
2017-09-09T04:52:13.622Z,4.83
2017-09-09T04:54:41.939Z,3.50
2017-09-09T04:57:10.277Z,4.27
2017-09-09T04:59:38.587Z,4.40
2017-09-09T05:02:06.895Z,4.53
2017-09-09T05:04:35.205Z,4.07
2017-09-09T05:07:03.505Z,4.80
2017-09-09T05:09:31.809Z,4.70
2017-09-09T05:12:00.108Z,5.53
2017-09-09T05:14:28.421Z,5.10
2017-09-09T05:16:56.751Z,5.57
2017-09-09T05:19:25.103Z,6.80
2017-09-09T05:21:53.428Z,6.00
2017-09-09T05:24:22.509Z,5.80
2017-09-09T05:26:50.830Z,6.10
2017-09-09T05:29:19.153Z,5.90
2017-09-09T05:31:47.462Z,6.27
2017-09-09T05:34:16.538Z,5.30
2017-09-09T05:36:44.855Z,5.10
2017-09-09T05:39:13.167Z,4.97
2017-09-09T05:41:41.470Z,4.90
2017-09-09T05:44:09.774Z,5.37
2017-09-09T05:46:38.858Z,5.33
2017-09-09T05:49:07.924Z,5.87
2017-09-09T05:51:36.253Z,6.23
2017-09-09T05:54:04.552Z,7.10
2017-09-09T05:56:32.858Z,8.67
2017-09-09T05:59:01.191Z,10.10
2017-09-09T06:01:29.506Z,8.90
2017-09-09T06:03:57.849Z,9.77
2017-09-09T06:06:26.155Z,6.80
2017-09-09T06:08:54.479Z,7.20
2017-09-09T06:11:22.788Z,6.57
2017-09-09T06:13:51.118Z,6.53
2017-09-09T06:16:20.186Z,6.10
2017-09-09T06:18:48.495Z,5.03
2017-09-09T06:21:17.586Z,4.90
2017-09-09T06:23:46.692Z,5.23
2017-09-09T06:26:14.989Z,4.73
2017-09-09T06:28:43.298Z,4.90
2017-09-09T06:31:11.602Z,4.70
2017-09-09T06:33:39.936Z,4.27
2017-09-09T06:36:08.252Z,4.53
2017-09-09T06:38:36.564Z,4.97
2017-09-09T06:41:04.881Z,3.93
2017-09-09T06:43:33.178Z,5.50
2017-09-09T06:46:01.518Z,3.77
2017-09-09T06:48:29.813Z,4.53
2017-09-09T06:50:58.117Z,3.60
2017-09-09T06:53:26.450Z,3.43
2017-09-09T06:55:54.746Z,3.60
2017-09-09T06:58:23.046Z,4.27
2017-09-09T07:00:51.345Z,3.53
2017-09-09T07:03:20.438Z,4.10
2017-09-09T07:05:49.497Z,4.00
2017-09-09T07:08:17.839Z,3.87
2017-09-09T07:10:46.163Z,3.60
2017-09-09T07:13:14.462Z,3.63
2017-09-09T07:15:43.533Z,4.07
2017-09-09T07:18:11.825Z,4.27
2017-09-09T07:20:40.129Z,4.10
2017-09-09T07:23:09.199Z,4.13
2017-09-09T07:25:38.283Z,3.97
2017-09-09T07:28:06.603Z,5.03
2017-09-09T07:30:34.926Z,4.97
2017-09-09T07:33:03.229Z,4.77
2017-09-09T07:35:32.305Z,5.17
2017-09-09T07:38:00.603Z,4.60
2017-09-09T07:40:29.680Z,4.77
2017-09-09T07:42:57.991Z,5.47
2017-09-09T07:45:27.095Z,4.30
2017-09-09T07:47:55.406Z,4.30
2017-09-09T07:50:23.722Z,4.33
2017-09-09T07:52:52.811Z,4.97
2017-09-09T07:55:21.141Z,5.20
2017-09-09T07:57:49.448Z,4.70
2017-09-09T08:00:17.784Z,4.80
2017-09-09T08:02:46.101Z,5.70
2017-09-09T08:05:14.404Z,9.43
2017-09-09T08:07:43.485Z,5.57
2017-09-09T08:10:11.793Z,9.87
2017-09-09T08:12:40.873Z,5.43
2017-09-09T08:15:09.939Z,5.63
2017-09-09T08:17:38.254Z,6.70
2017-09-09T08:20:06.567Z,6.30
2017-09-09T08:22:34.906Z,7.53
2017-09-09T08:25:03.983Z,9.67
2017-09-09T08:27:32.301Z,5.30
2017-09-09T08:30:00.614Z,5.20
2017-09-09T08:32:28.909Z,5.50
2017-09-09T08:34:57.236Z,5.67
2017-09-09T08:37:25.610Z,6.50
2017-09-09T08:39:53.922Z,5.77
2017-09-09T08:42:22.226Z,6.00
2017-09-09T08:44:50.560Z,4.50
2017-09-09T08:47:18.858Z,5.50
2017-09-09T08:49:47.162Z,5.70
2017-09-09T08:52:15.478Z,5.50
2017-09-09T08:54:43.778Z,6.17
2017-09-09T08:57:12.093Z,5.43
2017-09-09T08:59:40.387Z,5.43
2017-09-09T09:02:09.470Z,5.70
2017-09-09T09:04:37.772Z,5.70
2017-09-09T09:07:06.107Z,5.43
2017-09-09T09:09:34.426Z,5.50
2017-09-09T09:12:02.728Z,5.23
2017-09-09T09:14:31.034Z,4.90
2017-09-09T09:16:59.337Z,4.60
2017-09-09T09:19:27.656Z,4.33
2017-09-09T09:21:55.950Z,5.03
2017-09-09T09:24:24.259Z,5.07
2017-09-09T09:26:53.347Z,4.90
2017-09-09T09:29:21.682Z,4.87
2017-09-09T09:31:49.984Z,4.73
2017-09-09T09:34:18.282Z,5.50
2017-09-09T09:36:46.593Z,6.30
2017-09-09T09:39:15.654Z,4.70
2017-09-09T09:41:43.966Z,5.50
2017-09-09T09:44:12.261Z,4.83
2017-09-09T09:46:40.593Z,4.47
2017-09-09T09:49:08.908Z,3.57
2017-09-09T09:51:37.212Z,3.97
2017-09-09T09:54:05.514Z,3.70
2017-09-09T09:56:33.811Z,3.47
2017-09-09T09:59:02.886Z,3.17
2017-09-09T10:01:31.189Z,3.13
2017-09-09T10:04:00.262Z,3.03
2017-09-09T10:06:28.568Z,2.80
2017-09-09T10:08:57.655Z,3.80
2017-09-09T10:11:26.718Z,2.87
2017-09-09T10:13:55.048Z,2.53
2017-09-09T10:16:23.343Z,2.57
2017-09-09T10:18:51.646Z,2.80
2017-09-09T10:21:19.962Z,2.53
2017-09-09T10:23:49.040Z,2.60
2017-09-09T10:26:18.114Z,2.30
2017-09-09T10:28:46.445Z,1.80
2017-09-09T10:31:14.778Z,2.10
2017-09-09T10:33:43.082Z,1.80
2017-09-09T10:36:12.138Z,2.80
2017-09-09T10:38:40.471Z,2.00
2017-09-09T10:41:08.774Z,2.00
2017-09-09T10:43:37.081Z,2.10
2017-09-09T10:46:05.370Z,1.83
2017-09-09T10:48:33.682Z,1.83
2017-09-09T10:51:01.994Z,1.63
2017-09-09T10:53:30.334Z,1.13
2017-09-09T10:55:58.631Z,1.20
2017-09-09T10:58:26.928Z,1.23
2017-09-09T11:00:55.240Z,1.17
2017-09-09T11:03:24.303Z,1.33
2017-09-09T11:05:52.655Z,1.13
2017-09-09T11:08:20.959Z,1.23
2017-09-09T11:10:49.266Z,1.60
2017-09-09T11:13:18.192Z,1.57
2017-09-09T11:15:46.535Z,1.33
2017-09-09T11:18:15.606Z,1.60
2017-09-09T11:20:43.915Z,1.40
2017-09-09T11:23:13.010Z,1.83
2017-09-09T11:25:42.114Z,1.20
2017-09-09T11:28:11.196Z,1.53
2017-09-09T11:30:40.286Z,1.53
2017-09-09T11:33:09.402Z,1.40
2017-09-09T11:35:38.482Z,1.50
2017-09-09T11:38:07.577Z,1.30
2017-09-09T11:40:36.666Z,1.07
2017-09-09T11:43:04.967Z,0.70
2017-09-09T11:45:33.283Z,0.93
2017-09-09T11:48:01.597Z,0.90
2017-09-09T11:50:29.897Z,0.73
2017-09-09T11:52:58.198Z,1.00
2017-09-09T11:55:26.510Z,0.90
2017-09-09T11:57:54.824Z,1.07
2017-09-09T12:00:23.147Z,0.90
2017-09-09T12:02:51.457Z,0.90
2017-09-09T12:05:19.786Z,1.13
2017-09-09T12:07:48.090Z,1.00
2017-09-09T12:10:16.391Z,1.03
2017-09-09T12:12:44.701Z,0.77
2017-09-09T12:15:12.998Z,0.90
2017-09-09T12:17:41.310Z,0.90
2017-09-09T12:20:09.619Z,0.90
2017-09-09T12:22:38.722Z,0.80
2017-09-09T12:25:07.021Z,0.80
2017-09-09T12:27:35.330Z,0.70
2017-09-09T12:30:03.638Z,0.60
2017-09-09T12:32:32.717Z,0.70
2017-09-09T12:35:01.026Z,0.90
2017-09-09T12:37:29.335Z,1.00
2017-09-09T12:39:57.663Z,1.00
2017-09-09T12:42:26.734Z,0.80
2017-09-09T12:44:55.040Z,1.33
2017-09-09T12:47:24.108Z,0.83
2017-09-09T12:49:52.432Z,1.00
2017-09-09T12:52:20.745Z,0.80
2017-09-09T12:54:49.048Z,1.23
2017-09-09T12:57:17.346Z,1.17
2017-09-09T12:59:45.662Z,1.57
2017-09-09T13:02:13.989Z,1.50
2017-09-09T13:04:43.071Z,1.50
2017-09-09T13:07:11.383Z,1.33
2017-09-09T13:09:39.690Z,0.80
2017-09-09T13:12:07.998Z,0.70
2017-09-09T13:14:36.309Z,1.10
2017-09-09T13:17:05.377Z,1.23
2017-09-09T13:19:33.687Z,0.60
2017-09-09T13:22:01.986Z,0.73
2017-09-09T13:24:30.353Z,0.57
2017-09-09T13:26:58.660Z,0.67
2017-09-09T13:29:26.971Z,0.70
2017-09-09T13:31:55.273Z,0.60
2017-09-09T13:34:23.570Z,0.97
2017-09-09T13:36:51.886Z,0.60
2017-09-09T13:39:20.181Z,0.63
2017-09-09T13:41:49.283Z,0.93
2017-09-09T13:44:18.352Z,0.50
2017-09-09T13:46:46.651Z,0.53
2017-09-09T13:49:15.968Z,1.17
2017-09-09T13:51:44.260Z,0.60
2017-09-09T13:54:12.565Z,0.77
2017-09-09T13:56:40.852Z,1.67
2017-09-09T13:59:09.162Z,0.70
2017-09-09T14:01:38.223Z,0.83
2017-09-09T14:04:06.554Z,0.60
2017-09-09T14:06:34.851Z,1.10
2017-09-09T14:09:03.161Z,0.67
2017-09-09T14:11:31.492Z,0.73
2017-09-09T14:13:59.798Z,0.97
2017-09-09T14:16:28.101Z,0.80
2017-09-09T14:18:56.397Z,0.80
2017-09-09T14:21:25.463Z,0.50
2017-09-09T14:23:53.758Z,0.73
2017-09-09T14:26:22.847Z,0.80
2017-09-09T14:28:51.142Z,0.93
2017-09-09T14:31:20.222Z,0.53
2017-09-09T14:33:48.526Z,0.70
2017-09-09T14:36:17.646Z,0.70
2017-09-09T14:38:45.950Z,0.60
2017-09-09T14:41:14.246Z,0.57
2017-09-09T14:43:42.570Z,0.83
2017-09-09T14:46:10.865Z,0.60
2017-09-09T14:48:39.163Z,0.60
2017-09-09T14:51:07.482Z,0.80
2017-09-09T14:53:36.542Z,0.70
2017-09-09T14:56:04.841Z,0.50
2017-09-09T14:58:33.902Z,0.70
2017-09-09T15:01:02.220Z,0.80
2017-09-09T15:03:31.294Z,0.60
2017-09-09T15:05:59.605Z,0.50
2017-09-09T15:08:27.907Z,0.60
2017-09-09T15:10:56.225Z,0.70
2017-09-09T15:13:24.534Z,0.60
2017-09-09T15:15:53.733Z,0.80
2017-09-09T15:18:22.133Z,0.70
2017-09-09T15:20:50.430Z,0.80
2017-09-09T15:23:18.738Z,1.00
2017-09-09T15:25:47.103Z,0.80
2017-09-09T15:28:15.410Z,0.60
2017-09-09T15:30:44.480Z,0.70
2017-09-09T15:33:12.790Z,0.60
2017-09-09T15:35:41.105Z,0.70
2017-09-09T15:38:09.414Z,0.77
2017-09-09T15:40:37.710Z,0.60
2017-09-09T15:43:06.802Z,0.70
2017-09-09T15:45:35.869Z,0.90
2017-09-09T15:48:04.165Z,0.90
2017-09-09T15:50:32.470Z,0.80
2017-09-09T15:53:00.771Z,0.97
2017-09-09T15:55:29.078Z,1.10
2017-09-09T15:57:57.376Z,1.20
2017-09-09T16:00:26.474Z,1.23
2017-09-09T16:02:55.539Z,0.80
2017-09-09T16:05:23.838Z,1.00
2017-09-09T16:07:52.151Z,1.00
2017-09-09T16:10:20.457Z,1.20
2017-09-09T16:12:48.770Z,0.90
2017-09-09T16:15:17.075Z,0.90
2017-09-09T16:17:45.395Z,1.00
2017-09-09T16:20:13.717Z,0.60
2017-09-09T16:22:42.814Z,1.23
2017-09-09T16:25:11.885Z,1.10
2017-09-09T16:27:40.185Z,0.77
2017-09-09T16:30:09.252Z,1.20
2017-09-09T16:32:37.555Z,1.57
2017-09-09T16:35:06.639Z,1.20
2017-09-09T16:37:35.710Z,1.17
2017-09-09T16:40:04.014Z,1.23
2017-09-09T16:42:32.301Z,0.87
2017-09-09T16:45:01.395Z,0.87
2017-09-09T16:47:30.463Z,1.00
2017-09-09T16:49:58.757Z,1.80
2017-09-09T16:52:27.078Z,0.87
2017-09-09T16:54:55.382Z,1.20
2017-09-09T16:57:23.726Z,1.23
2017-09-09T16:59:52.030Z,1.00
2017-09-09T17:02:20.325Z,0.87
2017-09-09T17:04:48.631Z,1.00
2017-09-09T17:07:17.693Z,1.10
2017-09-09T17:09:46.003Z,0.93
2017-09-09T17:12:14.943Z,1.10
2017-09-09T17:14:43.254Z,1.20
2017-09-09T17:17:11.575Z,1.20
2017-09-09T17:19:39.907Z,0.90
2017-09-09T17:22:08.215Z,1.30
2017-09-09T17:24:36.514Z,0.87
2017-09-09T17:27:04.821Z,1.10
2017-09-09T17:29:33.122Z,1.20
2017-09-09T17:32:01.425Z,1.27
2017-09-09T17:34:30.544Z,1.00
2017-09-09T17:36:58.849Z,1.23
2017-09-09T17:39:27.154Z,1.27
2017-09-09T17:41:56.230Z,1.20
2017-09-09T17:44:24.530Z,1.50
2017-09-09T17:46:53.611Z,1.10
2017-09-09T17:49:21.906Z,1.33
2017-09-09T17:51:51.062Z,1.30
2017-09-09T17:54:19.366Z,1.10
2017-09-09T17:56:47.662Z,0.90
2017-09-09T17:59:16.748Z,1.00
2017-09-09T18:01:45.045Z,0.83
2017-09-09T18:04:13.350Z,1.00
2017-09-09T18:06:41.650Z,1.03
2017-09-09T18:09:09.974Z,1.00
2017-09-09T18:11:38.278Z,1.27
2017-09-09T18:14:06.585Z,1.40
2017-09-09T18:16:34.878Z,1.10
2017-09-09T18:19:03.959Z,1.00
2017-09-09T18:21:32.258Z,1.33
2017-09-09T18:24:01.355Z,1.20
2017-09-09T18:26:30.418Z,1.10
2017-09-09T18:28:58.718Z,1.27
2017-09-09T18:31:27.812Z,1.30
2017-09-09T18:33:56.132Z,0.90
2017-09-09T18:36:24.439Z,1.10
2017-09-09T18:38:52.735Z,1.17
2017-09-09T18:41:21.067Z,1.20
2017-09-09T18:43:50.054Z,1.77
2017-09-09T18:46:18.391Z,1.40
2017-09-09T18:48:47.466Z,1.03
2017-09-09T18:51:15.770Z,1.13
2017-09-09T18:53:44.082Z,1.00
2017-09-09T18:56:12.374Z,1.30
2017-09-09T18:58:40.674Z,0.97
2017-09-09T19:01:08.971Z,2.10
2017-09-09T19:03:38.047Z,3.10
2017-09-09T19:06:06.345Z,3.27
2017-09-09T19:08:35.418Z,2.87
2017-09-09T19:11:03.719Z,3.57
2017-09-09T19:13:32.790Z,7.37
2017-09-09T19:16:01.111Z,3.67
2017-09-09T19:18:29.417Z,1.90
2017-09-09T19:20:57.712Z,1.40
2017-09-09T19:23:26.050Z,1.47
2017-09-09T19:25:54.357Z,1.10
2017-09-09T19:28:22.680Z,1.93
2017-09-09T19:30:51.753Z,1.73
2017-09-09T19:33:20.066Z,1.60
2017-09-09T19:35:49.162Z,1.80
2017-09-09T19:38:18.234Z,1.30
2017-09-09T19:40:46.530Z,1.57
2017-09-09T19:43:15.605Z,1.40
2017-09-09T19:45:43.898Z,1.80
2017-09-09T19:48:12.975Z,1.90
2017-09-09T19:50:41.278Z,1.93
2017-09-09T19:53:09.627Z,1.40
2017-09-09T19:55:37.927Z,1.77
2017-09-09T19:58:06.999Z,1.67
2017-09-09T20:00:35.333Z,1.73
2017-09-09T20:03:03.635Z,1.60
2017-09-09T20:05:31.949Z,1.73
2017-09-09T20:08:01.015Z,2.20
2017-09-09T20:10:29.337Z,1.63
2017-09-09T20:12:57.638Z,1.90
2017-09-09T20:15:25.954Z,1.80
2017-09-09T20:17:54.269Z,1.40
2017-09-09T20:20:22.599Z,1.90
2017-09-09T20:22:50.921Z,3.63
2017-09-09T20:25:19.239Z,7.03
2017-09-09T20:27:47.544Z,7.07
2017-09-09T20:30:15.846Z,4.90
2017-09-09T20:32:44.460Z,3.57
2017-09-09T20:35:12.757Z,2.90
2017-09-09T20:37:41.055Z,1.73
2017-09-09T20:40:09.380Z,1.87
2017-09-09T20:42:37.678Z,2.33
2017-09-09T20:45:05.983Z,1.73
2017-09-09T20:47:34.286Z,2.10
2017-09-09T20:50:03.358Z,1.83
2017-09-09T20:52:31.664Z,1.87
2017-09-09T20:55:00.734Z,2.13
2017-09-09T20:57:29.072Z,2.10
2017-09-09T20:59:57.417Z,1.80
2017-09-09T21:02:26.473Z,2.23
2017-09-09T21:04:54.770Z,2.00
2017-09-09T21:07:23.850Z,2.73
2017-09-09T21:09:52.160Z,2.20
2017-09-09T21:12:21.259Z,2.20
2017-09-09T21:14:50.321Z,2.70
2017-09-09T21:17:18.630Z,2.23
2017-09-09T21:19:47.708Z,2.40
2017-09-09T21:22:17.494Z,2.00
2017-09-09T21:24:45.789Z,2.33
2017-09-09T21:27:14.108Z,2.43
2017-09-09T21:29:42.419Z,2.13
2017-09-09T21:32:10.722Z,2.97
2017-09-09T21:34:39.058Z,2.63
2017-09-09T21:37:07.390Z,2.70
2017-09-09T21:39:36.469Z,2.67
2017-09-09T21:42:04.787Z,3.23
2017-09-09T21:44:33.130Z,2.40
2017-09-09T21:47:01.439Z,2.90
2017-09-09T21:49:29.743Z,2.57
2017-09-09T21:51:58.063Z,3.03
2017-09-09T21:54:27.140Z,3.20
2017-09-09T21:56:56.091Z,3.50
2017-09-09T21:59:24.398Z,3.23
2017-09-09T22:01:52.714Z,3.30
2017-09-09T22:04:21.810Z,2.97
2017-09-09T22:06:50.954Z,3.63
2017-09-09T22:09:19.259Z,3.33
2017-09-09T22:11:47.562Z,3.67
2017-09-09T22:14:15.875Z,3.63
2017-09-09T22:16:44.177Z,3.13
2017-09-09T22:19:12.480Z,3.43
2017-09-09T22:21:42.375Z,3.77
2017-09-09T22:24:10.696Z,3.53
2017-09-09T22:26:39.773Z,3.27
2017-09-09T22:29:08.851Z,3.10
2017-09-09T22:31:37.158Z,3.30
2017-09-09T22:34:06.257Z,2.70
2017-09-09T22:36:35.328Z,2.80
2017-09-09T22:39:03.666Z,2.40
2017-09-09T22:41:31.974Z,2.23
2017-09-09T22:44:00.266Z,2.93
2017-09-09T22:46:29.345Z,2.60
2017-09-09T22:48:57.638Z,2.30
2017-09-09T22:51:26.714Z,2.23
2017-09-09T22:53:55.010Z,2.43
2017-09-09T22:56:24.088Z,2.07
2017-09-09T22:58:52.389Z,2.30
2017-09-09T23:01:21.506Z,2.00
2017-09-09T23:03:49.817Z,2.00
2017-09-09T23:06:18.125Z,1.97
2017-09-09T23:08:46.442Z,2.40
2017-09-09T23:11:14.743Z,1.63
2017-09-09T23:13:43.052Z,2.00
2017-09-09T23:16:11.350Z,1.70
2017-09-09T23:18:40.430Z,1.90
2017-09-09T23:21:08.721Z,1.60
2017-09-09T23:23:37.798Z,2.20
2017-09-09T23:26:06.102Z,1.63
2017-09-09T23:28:35.170Z,1.80
2017-09-09T23:31:03.498Z,2.53
2017-09-09T23:33:31.790Z,1.77
2017-09-09T23:36:00.099Z,1.97
2017-09-09T23:38:28.394Z,1.57
2017-09-09T23:40:57.461Z,1.50
2017-09-09T23:43:25.760Z,2.00
2017-09-09T23:45:54.864Z,1.90
2017-09-09T23:48:23.937Z,1.93
2017-09-09T23:50:52.238Z,1.57
2017-09-09T23:53:21.313Z,2.17
2017-09-09T23:55:49.610Z,2.00
2017-09-09T23:58:18.680Z,1.53
